• Join FlightAware (Why Join?)
  • Login
  • US Flag 
05:27AM EDT


 

Airport Tracker/Info


-or-


 

Live Flight TrackerFlight Track Log ✈ UAL3744 ✈ 18-Apr-2013 ✈ KIAD - KDFW

Flight Track Log - Related Links

Times and Time Zones

All times are in EDT time to prevent confusion due to time zone crossing. See the UAL3744 flight status page for this flight to view local times or setup timezone preferences in your user account.

Time Position Orientation Groundspeed Altitude Reporting Facility
EDT Latitude Longitude Course Direction KTS MPH feet Rate Location/Type
08:49AM 38.9000 -77.4500 288° West 181 208 1,600  Level Potomac TRACON
08:50AM 38.8667 -77.5167 237° Southwest 231 266 3,700 2,220 Climbing Potomac TRACON
08:52AM 38.7872 -77.6664 236° Southwest 241 277 9,000 2,160 Climbing Washington Center
08:53AM 38.8019 -77.7681 281° West 258 297 10,900 1,680 Climbing Washington Center
08:54AM 38.8144 -77.8803 278° West 292 336 12,400 1,500 Climbing Washington Center
08:55AM 38.8430 -78.1719 288° West  Level FlightAware Approximate
08:55AM 38.8289 -78.0006 279° West 325 374 14,000  Level Washington Center
08:56AM 38.8450 -78.1239 280° West 344 396 15,600 1,740 Climbing Washington Center
08:57AM 38.8528 -78.2547 274° West 363 418 17,500 1,620 Climbing Washington Center
08:58AM 38.8517 -78.3878 269° West 368 423 18,900 1,200 Climbing Washington Center
08:59AM 38.8544 -78.5347 271° West 368 423 20,000 1,380 Climbing Washington Center
09:00AM 38.8494 -78.6569 267° West 373 429 21,700 1,440 Climbing Washington Center
09:01AM 38.8478 -78.7956 269° West 385 443 22,900 1,140 Climbing Washington Center
09:02AM 38.8436 -78.9528 268° West 396 456 24,000 960 Climbing Washington Center
09:03AM 38.8439 -79.0833 270° West 403 464 24,900 900 Climbing Washington Center
09:04AM 38.8356 -79.2294 266° West 403 464 25,900 900 Climbing Washington Center
09:05AM 38.8100 -79.3747 257° West 403 464 26,800 840 Climbing Washington Center
09:06AM 38.7847 -79.5200 257° West 413 475 27,600 720 Climbing Washington Center
09:07AM 38.7586 -79.6731 258° West 425 489 28,300 1,200 Climbing Washington Center
09:08AM 38.7281 -79.8336 256° West 432 497 30,000 1,140 Climbing Washington Center
09:09AM 38.7022 -79.9758 257° West 426 490 30,600 540 Climbing Washington Center
09:11AM 38.6539 -80.2131 255° West 420 483 31,700 660 Climbing Indianapolis Center
09:12AM 38.6214 -80.3881 257° West 421 484 32,600 780 Climbing Indianapolis Center
09:13AM 38.5950 -80.5333 257° West 418 481 33,400 780 Climbing Indianapolis Center
09:14AM 38.5664 -80.6756 256° West 415 478 34,200 780 Climbing Indianapolis Center
09:15AM 38.5392 -80.8183 256° West 412 474 35,000 360 Climbing Indianapolis Center
09:16AM 38.5103 -80.9617 256° West 415 478 35,000  Level Indianapolis Center
09:18AM 38.4814 -81.1083 256° West 422 486 35,000 240 Level Indianapolis Center
09:19AM 38.4531 -81.2550 256° West 422 486 35,600 480 Climbing Indianapolis Center
09:20AM 38.4236 -81.3992 255° West 416 479 36,000 180 Climbing Indianapolis Center
09:21AM 38.3939 -81.5472 256° West 424 488 36,000  Level Indianapolis Center
09:22AM 38.3589 -81.6922 253° West 425 489 36,000  Level Indianapolis Center
09:23AM 38.3186 -81.8367 250° West 430 495 36,000  Level Indianapolis Center
09:24AM 38.2797 -81.9797 251° West 428 493 36,000  Level Indianapolis Center
09:25AM 38.2311 -82.1544 251° West 433 498 36,000  Level Indianapolis Center
09:26AM 38.1903 -82.3000 250° West 435 501 36,000  Level Indianapolis Center
09:27AM 38.1492 -82.4453 250° West 435 501 36,000  Level Indianapolis Center
09:28AM 38.1106 -82.5853 251° West 437 503 36,000  Level Indianapolis Center
09:29AM 38.0681 -82.7281 249° West 435 501 36,000  Level Indianapolis Center
09:30AM 38.0192 -82.8983 250° West 438 504 36,000  Level Indianapolis Center
09:31AM 37.9764 -83.0464 250° West 444 511 36,000  Level Indianapolis Center
09:32AM 37.9339 -83.1953 250° West 448 516 36,000  Level Indianapolis Center
09:33AM 37.8911 -83.3439 250° West 450 518 36,000  Level Indianapolis Center
09:34AM 37.8464 -83.4936 249° West 452 520 36,000  Level Indianapolis Center
09:35AM 37.8025 -83.6431 250° West 454 522 36,000  Level Indianapolis Center
09:36AM 37.7500 -83.8181 249° West 456 525 36,000  Level Indianapolis Center
09:37AM 37.7050 -83.9678 249° West 455 524 36,000  Level Indianapolis Center
09:38AM 37.6606 -84.1158 249° West 452 520 36,000  Level Indianapolis Center
09:39AM 37.6167 -84.2631 249° West 450 518 36,000  Level Indianapolis Center
09:40AM 37.5722 -84.4078 249° West 444 511 36,000  Level Indianapolis Center
09:41AM 37.5275 -84.5525 249° West 442 509 36,000  Level Indianapolis Center
09:42AM 37.4842 -84.6969 249° West 440 506 36,000  Level Indianapolis Center
09:43AM 37.4317 -84.8636 248° West 438 504 36,000  Level Indianapolis Center
09:44AM 37.3883 -85.0069 249° West 437 503 36,000  Level Indianapolis Center
09:45AM 37.3433 -85.1478 248° West 435 501 36,000  Level Indianapolis Center
09:46AM 37.2978 -85.2903 248° West 438 504 36,000  Level Indianapolis Center
09:47AM 37.2550 -85.4297 249° West 432 497 36,000  Level Indianapolis Center
09:48AM 37.2058 -85.5875 249° West 433 498 36,000  Level Indianapolis Center
09:49AM 37.1900 -85.6389 249° West 433 498 36,000  Level Memphis Center
09:50AM 37.1453 -85.7742 248° West 433 498 36,000  Level Memphis Center
09:51AM 37.1044 -85.9119 250° West 433 498 36,000  Level Memphis Center
09:52AM 37.0569 -86.0497 247° West 433 498 36,000  Level Memphis Center
09:53AM 37.0053 -86.1797 244° Southwest 428 493 36,000  Level Memphis Center
09:54AM 36.9447 -86.3050 239° Southwest 428 493 36,000  Level Memphis Center
09:55AM 36.8783 -86.4431 239° Southwest 434 499 36,000  Level Memphis Center
09:56AM 36.8136 -86.5708 238° Southwest 434 499 36,000  Level Memphis Center
09:57AM 36.7508 -86.6981 238° Southwest 434 499 36,000  Level Memphis Center
09:58AM 36.6856 -86.8253 237° Southwest 434 499 36,000  Level Memphis Center
09:59AM 36.6225 -86.9547 239° Southwest 434 499 36,000  Level Memphis Center
10:00AM 36.5572 -87.0814 237° Southwest 434 499 36,000  Level Memphis Center
10:01AM 36.4917 -87.2106 238° Southwest 439 505 36,000  Level Memphis Center
10:02AM 36.4261 -87.3369 237° Southwest 439 505 36,000  Level Memphis Center
10:03AM 36.3625 -87.4603 237° Southwest 444 511 36,000  Level Memphis Center
10:04AM 36.2986 -87.5861 238° Southwest 444 511 36,000  Level Memphis Center
10:05AM 36.2325 -87.7119 237° Southwest 444 511 36,000  Level Memphis Center
10:06AM 36.1703 -87.8347 238° Southwest 444 511 36,000  Level Memphis Center
10:07AM 36.1336 -87.9722 252° West 425 489 36,000  Level Memphis Center
10:08AM 36.1217 -88.1164 264° West 422 486 36,000 300 Level Memphis Center
10:09AM 36.1092 -88.2375 263° West 417 480 36,700 720 Climbing Memphis Center
10:10AM 36.0947 -88.3739 263° West 417 480 37,500 600 Climbing Memphis Center
10:11AM 36.0822 -88.5078 263° West 405 466 38,000 240 Climbing Memphis Center
10:12AM 36.0694 -88.6392 263° West 395 455 38,000  Level Memphis Center
10:13AM 36.0547 -88.7728 262° West 390 449 38,000  Level Memphis Center
10:14AM 36.0417 -88.9042 263° West 390 449 38,000  Level Memphis Center
10:15AM 36.0264 -89.0353 262° West 390 449 38,000  Level Memphis Center
10:16AM 36.0131 -89.1689 263° West 390 449 38,000  Level Memphis Center
10:17AM 35.9997 -89.3025 263° West 390 449 38,000  Level Memphis Center
10:18AM 35.9842 -89.4489 263° West 390 449 38,000  Level Memphis Center
10:19AM 35.9706 -89.5825 263° West 390 449 38,000  Level Memphis Center
10:20AM 35.9567 -89.7158 263° West 390 449 38,000  Level Memphis Center
10:21AM 35.9450 -89.8519 264° West 390 449 38,000  Level Memphis Center
10:22AM 35.9286 -89.9906 262° West 395 455 38,000  Level Memphis Center
10:23AM 35.9144 -90.1236 263° West 401 461 38,000  Level Memphis Center
10:24AM 35.8981 -90.2622 262° West 406 467 38,000  Level Memphis Center
10:25AM 35.8833 -90.4031 263° West 411 473 38,000  Level Memphis Center
10:26AM 35.8667 -90.5389 261° West 411 473 38,000  Level Memphis Center
10:27AM 35.8497 -90.6772 261° West 411 473 38,100  Climbing Memphis Center
10:28AM 35.8347 -90.8103 262° West 406 467 38,000  Descending Memphis Center
10:29AM 35.8194 -90.9433 262° West 406 467 38,100  Climbing Memphis Center
10:30AM 35.8042 -91.0764 262° West 406 467 38,000 -60 Descending Memphis Center
10:31AM 35.7931 -91.2067 264° West 396 456 38,000  Level Memphis Center
10:32AM 35.7733 -91.3319 259° West 391 450 38,000  Level Memphis Center
10:33AM 35.7661 -91.4469 266° West 380 437 38,000  Level Memphis Center
10:34AM 35.7525 -91.5694 262° West 375 432 38,000  Level Memphis Center
10:35AM 35.7386 -91.6919 262° West 370 426 38,000  Level Memphis Center
10:36AM 35.7206 -91.8119 260° West 370 426 38,000  Level Memphis Center
10:37AM 35.7044 -91.9344 261° West 370 426 38,000  Level Memphis Center
10:38AM 35.6906 -92.0542 262° West 365 420 38,000  Level Memphis Center
10:39AM 35.6742 -92.1742 260° West 365 420 38,000  Level Memphis Center
10:40AM 35.6578 -92.2964 261° West 365 420 38,000  Level Memphis Center
10:41AM 35.6433 -92.4186 262° West 370 426 38,000  Level Memphis Center
10:42AM 35.6267 -92.5383 260° West 365 420 38,000 -60 Level Memphis Center
10:43AM 35.6119 -92.6578 261° West 365 420 37,900  Descending Memphis Center
10:44AM 35.5969 -92.7928 262° West 373 429 38,000  Climbing Memphis Center
10:45AM 35.5800 -92.9122 260° West 366 421 38,000  Level Memphis Center
10:46AM 35.5650 -93.0317 261° West 366 421 38,000  Level Memphis Center
10:47AM 35.5497 -93.1511 261° West 366 421 38,000  Level Memphis Center
10:48AM 35.5325 -93.2653 260° West 361 415 38,000  Level Memphis Center
10:49AM 35.5153 -93.3822 260° West 354 407 38,000  Level Memphis Center
10:50AM 35.4975 -93.5014 260° West 349 402 38,000  Level Memphis Center
10:51AM 35.4800 -93.6156 259° West 354 407 38,000  Level Memphis Center
10:52AM 35.4356 -93.7233 243° Southwest 349 402 38,000 -60 Level Memphis Center
10:53AM 35.3889 -93.8308 242° Southwest 355 409 37,900 -600 Descending Memphis Center
10:54AM 35.3419 -93.9358 241° Southwest 355 409 36,900 -960 Descending Memphis Center
10:55AM 35.2972 -94.0408 242° Southwest 355 409 36,000 -480 Descending Memphis Center
10:56AM 35.2503 -94.1431 241° Southwest 355 409 36,000  Level Memphis Center
10:57AM 35.2053 -94.2478 242° Southwest 350 403 36,000  Level Memphis Center
10:59AM 35.1050 -94.4775 242° Southwest 350 403 36,000  Level Fort Worth Center
11:00AM 35.0594 -94.5831 242° Southwest 355 409 36,000  Level Fort Worth Center
11:01AM 35.0075 -94.6861 238° Southwest 360 414 36,000  Level Fort Worth Center
11:02AM 34.9342 -94.7694 223° Southwest 360 414 36,000  Level Fort Worth Center
11:03AM 34.8689 -94.8397 221° Southwest 355 409 36,000  Level Fort Worth Center
11:04AM 34.7975 -94.9153 221° Southwest 355 409 36,000  Level Fort Worth Center
11:05AM 34.7258 -94.9931 222° Southwest 355 409 36,000  Level Fort Worth Center
11:06AM 34.6583 -95.0633 221° Southwest 345 397 36,000 -1,020 Level Fort Worth Center
11:07AM 34.5847 -95.1408 221° Southwest 345 397 34,000 -2,100 Descending Fort Worth Center
11:08AM 34.5150 -95.2158 222° Southwest 345 397 31,800 -2,100 Descending Fort Worth Center
11:09AM 34.4497 -95.2881 222° Southwest 339 390 29,800 -2,040 Descending Fort Worth Center
11:10AM 34.3797 -95.3578 219° Southwest 334 384 27,800 -1,920 Descending Fort Worth Center
11:11AM 34.3164 -95.4272 222° Southwest 328 377 26,000 -1,680 Descending Fort Worth Center
11:12AM 34.2506 -95.4964 221° Southwest 321 369 24,500 -1,020 Descending Fort Worth Center
11:13AM 34.1931 -95.5556 220° Southwest 302 348 24,000 -300 Descending Fort Worth Center
11:14AM 34.1231 -95.6247 219° Southwest 302 348 24,000 -300 Level Fort Worth Center
11:15AM 34.0697 -95.6808 221° Southwest 302 348 23,400 -900 Descending Fort Worth Center
11:16AM 34.0039 -95.7525 222° Southwest 309 356 22,300 -1,140 Descending Fort Worth Center
11:17AM 33.9317 -95.8239 219° Southwest 322 371 21,200 -1,200 Descending Fort Worth Center
11:18AM 33.8617 -95.8953 220° Southwest 327 376 20,000 -1,320 Descending Fort Worth Center
11:19AM 33.7956 -95.9664 222° Southwest 320 368 18,600 -1,320 Descending Fort Worth Center
11:20AM 33.7339 -96.0297 221° Southwest 302 348 17,400 -1,200 Descending Fort Worth Center
11:21AM 33.6719 -96.0931 220° Southwest 302 348 16,200 -1,200 Descending Fort Worth Center
11:22AM 33.6139 -96.1539 221° Southwest 295 339 15,100 -1,020 Descending Fort Worth Center
11:23AM 33.5561 -96.2144 221° Southwest 285 328 14,200 -1,020 Descending Fort Worth Center
11:24AM 33.5003 -96.2775 223° Southwest 285 328 13,100 -1,020 Descending Fort Worth Center
11:25AM 33.4467 -96.3431 226° Southwest 285 328 12,200 -900 Descending Fort Worth Center
11:26AM 33.3992 -96.4008 225° Southwest 277 319 11,300 -600 Descending Fort Worth Center
11:27AM 33.3392 -96.4711 224° Southwest 272 313 11,000 -180 Descending Fort Worth Center
11:28AM 33.2917 -96.5286 225° Southwest 277 319 11,000  Level Fort Worth Center
11:29AM 33.2378 -96.5939 225° Southwest 277 319 11,000  Level Fort Worth Center
11:30AM 33.1861 -96.6564 225° Southwest 264 304 11,000  Level Fort Worth Center
11:31AM 33.1425 -96.7089 225° Southwest 247 284 11,000  Level Fort Worth Center
11:32AM 33.0886 -96.7689 223° Southwest 247 284 11,100  Climbing Fort Worth Center
11:33AM 33.0492 -96.8186 227° Southwest 247 284 11,000 -120 Descending Fort Worth Center
11:33AM 33.0333 -96.8333 218° Southwest 236 272 11,000  Level Dallas / Fort Worth TRACON
11:34AM 32.9833 -96.8833 220° Southwest 203 234 11,000 -120 Level Dallas / Fort Worth TRACON
11:35AM 32.9333 -96.9000 196° South 220 253 10,800 -780 Descending Dallas / Fort Worth TRACON
11:36AM 32.8667 -96.9000 180° South 224 258 9,400 -1,440 Descending Dallas / Fort Worth TRACON
11:37AM 32.8167 -96.9000 180° South 227 261 8,000 -1,560 Descending Dallas / Fort Worth TRACON
11:38AM 32.7500 -96.9000 180° South 256 295 6,500 -1,020 Descending Dallas / Fort Worth TRACON
11:39AM 32.6667 -96.9167 190° South 263 303 6,000 -300 Descending Dallas / Fort Worth TRACON
11:40AM 32.6000 -96.9167 180° South 259 298 6,000 -360 Level Dallas / Fort Worth TRACON
11:41AM 32.5833 -96.9833 253° West 218 251 5,300 -540 Descending Dallas / Fort Worth TRACON
11:42AM 32.6333 -97.0333 320° Northwest 210 242 5,000 -360 Descending Dallas / Fort Worth TRACON
11:43AM 32.6833 -97.0333 360° North 200 230 4,600 -780 Descending Dallas / Fort Worth TRACON
11:44AM 32.7333 -97.0333 360° North 175 201 3,500 -1,080 Descending Dallas / Fort Worth TRACON
11:45AM 32.7833 -97.0333 360° North 174 200 2,500 -1,020 Descending Dallas / Fort Worth TRACON